Time;durP1;ratioP1;P1;durP2;ratioP2;P2;SDS_P1;SDS_P2;PMS_P1;PMS_P2;Temp;Humidity;BMP_temperature;BMP_pressure;BME280_temperature;BME280_humidity;BME280_pressure;Samples;Min_cycle;Max_cycle;Signal;HPM_P1;HPM_P2
2022/03/02 00:00:16;;;;;;;1242.90;255.40;;;5.40;99.90;;;;;;4957358;28;20442;-73
2022/03/02 00:02:45;;;;;;;1076.53;205.60;;;5.40;99.90;;;;;;4956876;29;20466;-73
2022/03/02 00:05:13;;;;;;;1291.57;248.17;;;5.40;99.90;;;;;;4956644;28;20458;-73
2022/03/02 00:07:41;;;;;;;1345.53;253.97;;;5.40;99.90;;;;;;4956698;28;20470;-73
2022/03/02 00:10:10;;;;;;;1353.47;295.10;;;5.30;99.90;;;;;;4955415;28;20545;-73
2022/03/02 00:12:38;;;;;;;1098.43;233.30;;;5.30;99.90;;;;;;4956564;29;20494;-73
2022/03/02 00:15:06;;;;;;;1244.73;211.63;;;5.30;99.90;;;;;;4956466;29;21007;-73
2022/03/02 00:17:36;;;;;;;1981.47;397.93;;;5.30;99.90;;;;;;4956398;28;20879;-73
2022/03/02 00:20:05;;;;;;;1463.47;285.80;;;5.30;99.90;;;;;;4956351;28;20445;-73
2022/03/02 00:22:33;;;;;;;1999.90;373.17;;;5.30;99.90;;;;;;4955112;28;20525;-73
2022/03/02 00:25:02;;;;;;;1312.57;221.80;;;5.30;99.90;;;;;;4956332;28;20439;-73
2022/03/02 00:27:30;;;;;;;1376.43;283.13;;;5.30;99.90;;;;;;4954992;29;20446;-73
2022/03/02 00:29:58;;;;;;;1918.83;324.23;;;5.20;99.90;;;;;;4956456;28;20529;-73
2022/03/02 00:32:26;;;;;;;1340.50;225.53;;;5.30;99.90;;;;;;4956397;28;20466;-73
2022/03/02 00:34:56;;;;;;;1127.77;212.43;;;5.30;99.90;;;;;;4956390;29;20437;-73
2022/03/02 00:37:24;;;;;;;1185.80;189.33;;;5.20;99.90;;;;;;4954742;28;20473;-73
2022/03/02 00:39:52;;;;;;;1254.70;193.83;;;5.20;99.90;;;;;;4955920;28;20445;-73
2022/03/02 00:42:20;;;;;;;1435.77;285.83;;;5.20;99.90;;;;;;4954655;28;20477;-73
2022/03/02 00:44:49;;;;;;;1642.87;335.27;;;5.20;99.90;;;;;;4956475;29;20958;-73
2022/03/02 00:47:17;;;;;;;1465.30;209.77;;;5.20;99.90;;;;;;4955864;28;20634;-73
2022/03/02 00:49:45;;;;;;;1500.27;262.80;;;5.10;99.90;;;;;;4954586;28;20972;-73
2022/03/02 00:52:16;;;;;;;1413.83;243.30;;;5.10;99.90;;;;;;4955964;28;20467;-73
2022/03/02 00:54:44;;;;;;;1203.27;195.13;;;5.10;99.90;;;;;;4954554;28;20447;-73
2022/03/02 00:57:12;;;;;;;1353.07;224.20;;;5.10;99.90;;;;;;4955796;29;20462;-73
2022/03/02 00:59:41;;;;;;;975.97;196.57;;;5.10;99.90;;;;;;4955981;28;20452;-73
2022/03/02 01:02:09;;;;;;;1126.53;171.03;;;5.10;99.90;;;;;;4955610;28;20999;-73
2022/03/02 01:04:38;;;;;;;1386.27;246.33;;;5.10;99.90;;;;;;4954378;28;20454;-73
2022/03/02 01:07:06;;;;;;;961.80;179.20;;;5.10;99.90;;;;;;4955619;28;20456;-73
2022/03/02 01:09:35;;;;;;;1149.17;188.57;;;5.10;99.90;;;;;;4955566;29;20445;-73
2022/03/02 01:12:04;;;;;;;1135.40;160.90;;;5.10;99.90;;;;;;4954509;29;20477;-73
2022/03/02 01:14:32;;;;;;;1352.67;261.80;;;5.00;99.90;;;;;;4955779;28;20514;-73
2022/03/02 01:17:00;;;;;;;1174.27;213.67;;;5.00;99.90;;;;;;4955474;28;20478;-73
2022/03/02 01:19:29;;;;;;;977.27;196.87;;;5.00;99.90;;;;;;4955481;28;20809;-73
2022/03/02 01:21:57;;;;;;;1130.97;194.93;;;5.00;99.90;;;;;;4955332;28;20435;-73
2022/03/02 01:24:25;;;;;;;1048.27;186.47;;;5.00;99.90;;;;;;4955764;28;20454;-73
2022/03/02 01:26:55;;;;;;;1554.80;252.47;;;5.00;99.90;;;;;;4955567;29;20963;-73
2022/03/02 01:29:23;;;;;;;969.10;147.03;;;5.00;99.90;;;;;;4955591;29;20439;-73
2022/03/02 01:31:52;;;;;;;1228.70;219.53;;;5.00;99.90;;;;;;4955216;29;20442;-73
2022/03/02 01:34:20;;;;;;;1069.87;240.97;;;5.00;99.90;;;;;;4953956;28;20446;-73
2022/03/02 01:36:48;;;;;;;1229.27;182.27;;;5.00;99.90;;;;;;4953949;28;20454;-73
2022/03/02 01:39:16;;;;;;;1318.80;228.97;;;4.90;99.90;;;;;;4953943;28;20450;-73
2022/03/02 01:41:44;;;;;;;1558.70;284.90;;;4.90;99.90;;;;;;4953839;28;20537;-73
2022/03/02 01:44:14;;;;;;;1040.17;133.67;;;4.90;99.90;;;;;;4955165;29;20444;-73
2022/03/02 01:46:42;;;;;;;928.40;168.23;;;4.80;99.90;;;;;;4955168;28;20443;-73
2022/03/02 01:49:11;;;;;;;918.53;177.73;;;4.90;99.90;;;;;;4953877;28;20505;-73
2022/03/02 01:51:40;;;;;;;1362.60;252.67;;;4.80;99.90;;;;;;4958117;28;20443;-73
2022/03/02 01:54:09;;;;;;;1243.43;254.90;;;4.80;99.90;;;;;;4959086;29;20469;-73
2022/03/02 01:56:37;;;;;;;1081.37;172.93;;;4.80;99.90;;;;;;4959148;28;20992;-73
2022/03/02 01:59:05;;;;;;;754.93;149.90;;;4.80;99.90;;;;;;4959167;28;20475;-73
2022/03/02 02:01:35;;;;;;;893.13;166.10;;;4.80;99.90;;;;;;4957132;28;20456;-74
2022/03/02 02:04:04;;;;;;;1062.13;208.43;;;4.80;99.90;;;;;;4958738;28;20562;-73
2022/03/02 02:06:33;;;;;;;757.03;148.90;;;4.80;99.90;;;;;;4958847;29;20833;-73
2022/03/02 02:09:02;;;;;;;925.53;152.37;;;4.80;99.90;;;;;;4958761;28;20449;-73
2022/03/02 02:11:31;;;;;;;933.03;188.93;;;4.80;99.90;;;;;;4958673;28;20441;-73
2022/03/02 02:14:00;;;;;;;1085.03;178.63;;;4.80;99.90;;;;;;4957367;28;20470;-73
2022/03/02 02:16:28;;;;;;;1656.07;274.30;;;4.80;99.90;;;;;;4957034;29;20455;-73
2022/03/02 02:18:58;;;;;;;960.87;173.37;;;4.80;99.90;;;;;;4958384;29;20525;-73
2022/03/02 02:21:28;;;;;;;911.73;163.07;;;4.80;99.90;;;;;;4958566;28;20525;-73
2022/03/02 02:23:57;;;;;;;1036.67;187.70;;;4.80;99.90;;;;;;4958528;29;20473;-73
2022/03/02 02:26:25;;;;;;;829.93;144.90;;;4.70;99.90;;;;;;4958531;28;20869;-73
2022/03/02 02:28:55;;;;;;;786.70;160.20;;;4.70;99.90;;;;;;4958419;29;20452;-73
2022/03/02 02:31:24;;;;;;;886.07;166.60;;;4.70;99.90;;;;;;4958431;28;20832;-73
2022/03/02 02:33:52;;;;;;;1166.10;218.63;;;4.70;99.90;;;;;;4958287;28;20458;-73
2022/03/02 02:36:20;;;;;;;1250.27;192.40;;;4.70;99.90;;;;;;4958576;29;20434;-73
2022/03/02 02:38:50;;;;;;;905.93;178.50;;;4.70;99.90;;;;;;4958178;29;20840;-73
2022/03/02 02:41:18;;;;;;;758.93;126.73;;;4.70;99.90;;;;;;4955868;29;20450;-73
2022/03/02 02:43:48;;;;;;;824.60;138.30;;;4.60;99.90;;;;;;4956809;28;20490;-73
2022/03/02 02:46:16;;;;;;;947.80;188.03;;;4.60;99.90;;;;;;4958121;29;20948;-73
2022/03/02 02:48:44;;;;;;;1015.40;167.70;;;4.60;99.90;;;;;;4956855;29;20453;-73
2022/03/02 02:51:12;;;;;;;1097.43;209.60;;;4.60;99.90;;;;;;4956740;29;20553;-73
2022/03/02 02:53:40;;;;;;;1227.80;218.40;;;4.60;99.90;;;;;;4958044;29;20478;-73
2022/03/02 02:56:10;;;;;;;975.57;134.23;;;4.60;99.90;;;;;;4957904;28;20454;-73
2022/03/02 02:58:38;;;;;;;823.27;127.93;;;4.60;99.90;;;;;;4958129;28;20584;-73
2022/03/02 03:01:06;;;;;;;880.30;154.33;;;4.60;99.90;;;;;;4957964;28;20434;-73
2022/03/02 03:03:34;;;;;;;1034.53;170.50;;;4.60;99.90;;;;;;4956672;28;21004;-73
2022/03/02 03:06:04;;;;;;;823.63;149.43;;;4.50;99.90;;;;;;4955778;29;20968;-73
2022/03/02 03:08:32;;;;;;;752.90;164.90;;;4.50;99.90;;;;;;4938830;29;20443;-73
2022/03/02 03:11:00;;;;;;;813.50;121.30;;;4.50;99.90;;;;;;4938549;29;20479;-73
2022/03/02 03:13:29;;;;;;;1078.63;186.23;;;4.50;99.90;;;;;;4954624;29;20462;-73
2022/03/02 03:15:58;;;;;;;905.20;121.87;;;4.50;99.90;;;;;;4957912;28;20445;-73
2022/03/02 03:18:26;;;;;;;805.40;146.53;;;4.50;99.90;;;;;;4957474;28;20470;-73
2022/03/02 03:20:54;;;;;;;840.13;135.73;;;4.50;99.90;;;;;;4956191;29;20535;-73
2022/03/02 03:23:22;;;;;;;857.73;129.07;;;4.50;99.90;;;;;;4956191;28;20581;-73
2022/03/02 03:25:51;;;;;;;805.33;117.10;;;4.40;99.90;;;;;;4957368;28;20435;-73
2022/03/02 03:28:19;;;;;;;826.07;133.27;;;4.40;99.90;;;;;;4956160;29;21175;-73
2022/03/02 03:30:48;;;;;;;940.83;165.07;;;4.40;99.90;;;;;;4955615;28;20447;-73
2022/03/02 03:33:17;;;;;;;896.77;143.47;;;4.40;99.90;;;;;;4957207;28;20866;-74
2022/03/02 03:35:45;;;;;;;583.83;118.43;;;4.40;99.90;;;;;;4957307;29;20807;-73
2022/03/02 03:38:13;;;;;;;1189.33;186.37;;;4.40;99.90;;;;;;4955920;29;20476;-73
2022/03/02 03:40:41;;;;;;;961.23;122.37;;;4.40;99.90;;;;;;4955938;29;20860;-73
2022/03/02 03:43:09;;;;;;;977.00;137.57;;;4.30;99.90;;;;;;4957180;28;20553;-73
2022/03/02 03:45:37;;;;;;;878.07;142.27;;;4.30;99.90;;;;;;4957438;28;20443;-73
2022/03/02 03:48:07;;;;;;;1263.27;198.30;;;4.40;99.90;;;;;;4957031;29;20452;-73
2022/03/02 03:50:35;;;;;;;1115.83;175.13;;;4.40;99.90;;;;;;4955636;29;20442;-74
2022/03/02 03:53:03;;;;;;;930.90;142.67;;;4.30;99.90;;;;;;4955282;28;21030;-73
2022/03/02 03:55:32;;;;;;;765.47;120.33;;;4.30;99.90;;;;;;4955509;29;20828;-73
2022/03/02 03:58:00;;;;;;;885.63;145.60;;;4.30;99.90;;;;;;4955518;28;20455;-73
2022/03/02 04:00:28;;;;;;;960.07;189.20;;;4.30;99.90;;;;;;4957069;29;20550;-73
2022/03/02 04:02:58;;;;;;;973.03;138.63;;;4.30;99.90;;;;;;4956638;28;20463;-75
2022/03/02 04:05:29;;;;;;;931.17;128.20;;;4.30;99.90;;;;;;4957331;29;20427;-73
2022/03/02 04:07:57;;;;;;;923.00;139.83;;;4.30;99.90;;;;;;4956988;29;20442;-73
2022/03/02 04:10:25;;;;;;;810.90;119.43;;;4.30;99.90;;;;;;4956626;29;20454;-73
2022/03/02 04:12:53;;;;;;;911.57;159.57;;;4.30;99.90;;;;;;4954163;28;20471;-73
2022/03/02 04:15:22;;;;;;;842.70;118.37;;;4.30;99.90;;;;;;4956638;28;20957;-74
2022/03/02 04:17:50;;;;;;;1166.00;172.30;;;4.20;99.90;;;;;;4955255;28;20882;-74
2022/03/02 04:20:19;;;;;;;946.43;156.27;;;4.20;99.90;;;;;;4955083;28;20513;-73
2022/03/02 04:22:48;;;;;;;822.03;124.97;;;4.20;99.90;;;;;;4954976;28;20474;-74
2022/03/02 04:25:16;;;;;;;815.93;130.57;;;4.20;99.90;;;;;;4956386;28;20537;-74
2022/03/02 04:27:44;;;;;;;587.00;111.43;;;4.20;99.90;;;;;;4955002;28;20458;-74
2022/03/02 04:30:14;;;;;;;582.70;108.70;;;4.20;99.90;;;;;;4955010;28;20443;-73
2022/03/02 04:32:43;;;;;;;555.57;104.73;;;4.20;99.90;;;;;;4953892;29;20469;-74
2022/03/02 04:35:12;;;;;;;739.73;140.53;;;4.10;99.90;;;;;;4954797;28;20473;-74
2022/03/02 04:37:42;;;;;;;962.97;143.57;;;4.10;99.90;;;;;;4956121;28;20951;-73
2022/03/02 04:40:13;;;;;;;774.97;152.60;;;4.10;99.90;;;;;;4954727;29;20471;-74
2022/03/02 04:42:42;;;;;;;851.77;144.77;;;4.10;99.90;;;;;;4956281;28;20476;-73
2022/03/02 04:45:11;;;;;;;849.10;143.03;;;4.00;99.90;;;;;;4956266;28;20475;-73
2022/03/02 04:47:39;;;;;;;663.67;111.27;;;4.00;99.90;;;;;;4955899;29;20466;-74
2022/03/02 04:50:09;;;;;;;927.37;131.17;;;3.90;99.90;;;;;;4955888;29;20435;-74
2022/03/02 04:52:37;;;;;;;786.23;99.10;;;3.90;99.90;;;;;;4955425;28;20886;-73
2022/03/02 04:55:09;;;;;;;547.53;99.57;;;3.90;99.90;;;;;;4956158;29;20807;-74
2022/03/02 04:57:42;;;;;;;678.83;132.17;;;3.80;99.90;;;;;;4955869;28;20844;-74
2022/03/02 05:00:13;;;;;;;785.43;98.80;;;3.80;99.90;;;;;;4955690;29;20459;-73
2022/03/02 05:02:41;;;;;;;744.17;98.60;;;3.80;99.90;;;;;;4955894;28;20527;-73
2022/03/02 05:05:11;;;;;;;631.87;82.73;;;3.70;99.90;;;;;;4955913;28;20461;-73
2022/03/02 05:07:39;;;;;;;711.43;111.53;;;3.70;99.90;;;;;;4955828;29;20469;-73
2022/03/02 05:10:09;;;;;;;600.63;97.97;;;3.60;99.90;;;;;;4955888;28;20527;-73
2022/03/02 05:12:40;;;;;;;464.57;91.27;;;3.60;99.90;;;;;;4954612;28;20843;-73
2022/03/02 05:15:10;;;;;;;712.63;137.47;;;3.50;99.90;;;;;;4952718;29;20466;-73
2022/03/02 05:17:39;;;;;;;1527.60;192.77;;;3.50;99.90;;;;;;4955489;29;20453;-73
2022/03/02 05:20:09;;;;;;;696.80;133.87;;;3.40;99.90;;;;;;4955745;28;20474;-73
2022/03/02 05:22:37;;;;;;;699.00;115.90;;;3.40;99.90;;;;;;4955314;28;20462;-73
2022/03/02 05:25:08;;;;;;;491.80;107.20;;;3.30;99.90;;;;;;4954902;28;20449;-73
2022/03/02 05:27:36;;;;;;;570.80;97.43;;;3.30;99.90;;;;;;4955908;29;20510;-73
2022/03/02 05:30:08;;;;;;;1588.37;256.93;;;3.20;99.90;;;;;;4955269;28;20453;-73
2022/03/02 05:32:36;;;;;;;645.00;84.67;;;3.20;99.90;;;;;;4955829;28;20869;-73
2022/03/02 05:35:06;;;;;;;682.13;112.03;;;3.10;99.90;;;;;;4955483;28;20445;-73
2022/03/02 05:37:35;;;;;;;1831.77;256.80;;;3.10;99.90;;;;;;4955574;29;20851;-73
2022/03/02 05:40:04;;;;;;;493.53;104.27;;;3.00;99.90;;;;;;4955656;29;20477;-73
2022/03/02 05:42:32;;;;;;;568.23;96.93;;;3.00;99.90;;;;;;4953352;29;20565;-73
2022/03/02 05:45:00;;;;;;;482.60;86.73;;;3.00;99.90;;;;;;4955055;28;20818;-73
2022/03/02 05:47:30;;;;;;;638.00;111.60;;;2.90;99.90;;;;;;4954992;28;20940;-74
2022/03/02 05:49:58;;;;;;;1798.23;252.87;;;2.90;99.90;;;;;;4955040;28;20951;-73
2022/03/02 05:52:26;;;;;;;481.50;98.03;;;2.90;99.90;;;;;;4955238;29;20495;-73
2022/03/02 05:54:54;;;;;;;559.90;94.90;;;2.90;99.90;;;;;;4955296;29;20460;-74
2022/03/02 05:57:22;;;;;;;1153.23;215.20;;;2.80;99.90;;;;;;4955007;29;20447;-74
2022/03/02 05:59:51;;;;;;;479.27;79.87;;;2.80;99.90;;;;;;4953609;28;20477;-74
2022/03/02 06:02:19;;;;;;;601.37;84.83;;;2.70;99.90;;;;;;4955192;28;20489;-74
2022/03/02 06:04:49;;;;;;;427.93;68.47;;;2.70;99.90;;;;;;4954941;28;20470;-74
2022/03/02 06:07:17;;;;;;;605.37;111.03;;;2.70;99.90;;;;;;4954953;28;20450;-74
2022/03/02 06:09:46;;;;;;;521.87;99.70;;;2.60;99.90;;;;;;4954952;28;20443;-74
2022/03/02 06:12:16;;;;;;;460.27;98.60;;;2.60;99.90;;;;;;4953529;29;20999;-73
2022/03/02 06:14:44;;;;;;;454.33;105.53;;;2.50;99.90;;;;;;4953622;28;20454;-74
2022/03/02 06:17:13;;;;;;;651.97;106.27;;;2.50;99.90;;;;;;4954834;29;20449;-74
2022/03/02 06:19:42;;;;;;;539.33;87.07;;;2.40;99.90;;;;;;4954768;28;20478;-74
2022/03/02 06:22:14;;;;;;;496.23;112.13;;;2.40;99.90;;;;;;4954980;28;20534;-74
2022/03/02 06:24:42;;;;;;;686.00;128.10;;;2.40;99.90;;;;;;4953553;29;20443;-74
2022/03/02 06:27:10;;;;;;;478.27;74.17;;;2.40;99.90;;;;;;4953605;29;20489;-74
2022/03/02 06:29:39;;;;;;;623.73;86.73;;;2.30;99.90;;;;;;4953571;29;20454;-74
2022/03/02 06:32:08;;;;;;;624.53;113.37;;;2.30;99.90;;;;;;4953485;28;20474;-74
2022/03/02 06:34:36;;;;;;;467.17;79.17;;;2.20;99.90;;;;;;4954727;28;20537;-74
2022/03/02 06:37:06;;;;;;;653.07;127.53;;;2.20;99.90;;;;;;4956463;28;20852;-74
2022/03/02 06:39:35;;;;;;;608.17;128.47;;;2.10;99.90;;;;;;4958439;28;20454;-74
2022/03/02 06:42:09;;;;;;;503.30;73.70;;;2.10;99.90;;;;;;4958196;28;20837;-74
2022/03/02 06:44:54;;;;;;;1999.90;386.00;;;2.10;99.90;;;;;;4958463;28;20423;-74
2022/03/02 06:47:26;;;;;;;455.77;89.60;;;2.10;99.90;;;;;;4958360;29;20675;-74
2022/03/02 06:50:05;;;;;;;446.63;108.87;;;2.00;99.90;;;;;;4958316;28;20427;-74
2022/03/02 06:52:35;;;;;;;698.43;126.17;;;2.00;99.90;;;;;;4956723;29;20481;-74
2022/03/02 06:55:08;;;;;;;1999.90;324.90;;;2.00;99.90;;;;;;4958219;28;20450;-74
2022/03/02 06:57:39;;;;;;;609.87;108.80;;;2.00;99.90;;;;;;4956751;29;20458;-73
2022/03/02 07:00:16;;;;;;;431.87;100.47;;;2.00;99.90;;;;;;4958446;29;20818;-73
2022/03/02 07:02:49;;;;;;;780.37;132.07;;;2.00;99.90;;;;;;4957874;28;20462;-74
2022/03/02 07:05:19;;;;;;;1999.90;373.90;;;2.00;99.90;;;;;;4956619;29;20548;-74
2022/03/02 07:07:48;;;;;;;1221.43;80.30;;;2.10;99.90;;;;;;4956545;28;20543;-74
2022/03/02 07:10:17;;;;;;;542.27;100.80;;;2.00;99.90;;;;;;4957560;28;20454;-74
2022/03/02 07:12:46;;;;;;;1999.90;357.47;;;2.10;99.90;;;;;;4957911;28;20501;-74
2022/03/02 07:15:14;;;;;;;633.30;143.80;;;2.10;99.90;;;;;;4956441;29;20460;-74
2022/03/02 07:17:42;;;;;;;366.43;73.60;;;2.10;99.90;;;;;;4957820;28;20522;-74
2022/03/02 07:20:12;;;;;;;519.17;110.00;;;2.10;99.90;;;;;;4956260;29;20566;-73
2022/03/02 07:22:46;;;;;;;468.87;75.87;;;2.20;99.90;;;;;;4957558;28;20976;-73
2022/03/02 07:25:21;;;;;;;640.73;122.67;;;2.20;99.90;;;;;;4956296;29;20461;-74
2022/03/02 07:27:50;;;;;;;657.40;109.57;;;2.30;99.90;;;;;;4956331;29;20436;-74
2022/03/02 07:30:19;;;;;;;744.13;133.70;;;2.30;99.90;;;;;;4957391;28;20532;-74
2022/03/02 07:32:48;;;;;;;718.13;103.00;;;2.40;99.90;;;;;;4957626;28;20461;-74
2022/03/02 07:35:18;;;;;;;927.17;99.90;;;2.40;99.90;;;;;;4956219;29;20462;-74
2022/03/02 07:37:47;;;;;;;1042.80;154.97;;;2.40;99.90;;;;;;4957320;29;20513;-74
2022/03/02 07:40:17;;;;;;;966.10;100.43;;;2.50;99.90;;;;;;4957575;29;20466;-74
2022/03/02 07:42:45;;;;;;;1704.17;194.17;;;2.50;99.90;;;;;;4955881;29;20470;-73
2022/03/02 07:45:14;;;;;;;1484.97;202.93;;;2.60;99.90;;;;;;4955989;29;20454;-74
2022/03/02 07:47:42;;;;;;;607.57;67.07;;;2.70;99.90;;;;;;4955391;28;20493;-74
2022/03/02 07:50:10;;;;;;;662.30;72.73;;;2.70;99.90;;;;;;4955899;28;20453;-74
2022/03/02 07:52:40;;;;;;;613.57;107.47;;;2.70;99.90;;;;;;4956959;28;20565;-74
2022/03/02 07:55:09;;;;;;;1410.13;205.80;;;2.80;99.90;;;;;;4957292;28;20495;-74
2022/03/02 07:57:40;;;;;;;884.93;150.47;;;2.80;99.90;;;;;;4956711;28;20850;-74
2022/03/02 08:00:11;;;;;;;1408.77;256.93;;;2.90;99.90;;;;;;4956827;29;20446;-74
2022/03/02 08:02:41;;;;;;;977.13;193.30;;;3.00;99.90;;;;;;4957009;28;20456;-73
2022/03/02 08:05:12;;;;;;;1312.57;204.63;;;3.00;99.90;;;;;;4955504;28;20459;-74
2022/03/02 08:07:40;;;;;;;1824.40;376.50;;;3.10;99.90;;;;;;4957019;29;20498;-74
2022/03/02 08:10:09;;;;;;;1320.53;198.43;;;3.10;99.90;;;;;;4956660;28;20453;-74
2022/03/02 08:12:39;;;;;;;1905.90;337.10;;;3.20;99.90;;;;;;4956546;28;20910;-73
2022/03/02 08:15:09;;;;;;;1999.90;358.10;;;3.40;99.90;;;;;;4955338;28;20955;-74
2022/03/02 08:17:37;;;;;;;1999.90;376.93;;;3.50;99.90;;;;;;4956530;28;20438;-74
2022/03/02 08:20:07;;;;;;;1999.90;425.27;;;3.60;99.90;;;;;;4955289;28;20454;-73
2022/03/02 08:22:45;;;;;;;1999.90;525.97;;;3.80;99.90;;;;;;4956340;28;20489;-73
2022/03/02 08:25:13;;;;;;;1999.90;809.53;;;3.90;99.90;;;;;;4956728;29;20427;-74
2022/03/02 08:27:44;;;;;;;1999.90;523.87;;;4.10;99.90;;;;;;4956359;28;20935;-74
2022/03/02 08:30:13;;;;;;;1999.90;530.00;;;4.20;99.90;;;;;;4955058;29;20537;-74
2022/03/02 08:32:43;;;;;;;1999.90;634.17;;;4.30;99.90;;;;;;4956480;29;20828;-74
2022/03/02 08:35:12;;;;;;;1999.90;461.80;;;4.40;99.90;;;;;;4954950;28;20872;-74
2022/03/02 08:37:41;;;;;;;1946.23;427.60;;;4.50;99.90;;;;;;4956127;28;20500;-74
2022/03/02 08:40:12;;;;;;;1999.90;356.37;;;4.60;99.90;;;;;;4956340;28;20525;-74
2022/03/02 08:42:44;;;;;;;1999.90;374.77;;;4.70;99.90;;;;;;4954716;29;20490;-74
2022/03/02 08:45:12;;;;;;;1783.10;249.77;;;4.80;99.90;;;;;;4954838;28;20864;-74
2022/03/02 08:47:41;;;;;;;1861.23;308.97;;;4.90;99.90;;;;;;4954825;29;20451;-74
2022/03/02 08:50:10;;;;;;;1999.90;782.17;;;5.00;99.90;;;;;;4955980;28;20955;-74
2022/03/02 08:52:38;;;;;;;1999.90;765.80;;;5.10;99.90;;;;;;4954535;29;20482;-74
2022/03/02 08:55:10;;;;;;;1999.77;771.47;;;5.10;99.90;;;;;;4954614;28;20517;-74
2022/03/02 08:57:41;;;;;;;1999.90;344.93;;;5.10;99.90;;;;;;4955777;28;20446;-74
2022/03/02 09:00:13;;;;;;;1999.90;419.53;;;5.10;99.90;;;;;;4955780;28;20483;-74
2022/03/02 09:02:43;;;;;;;1999.90;374.67;;;5.10;99.90;;;;;;4955578;28;20482;-74
2022/03/02 09:05:12;;;;;;;1925.77;388.60;;;5.10;99.90;;;;;;4955264;29;20497;-74
2022/03/02 09:07:41;;;;;;;1999.90;554.23;;;5.20;99.90;;;;;;4954279;28;20881;-74
2022/03/02 09:10:10;;;;;;;1796.53;358.07;;;5.20;99.90;;;;;;4955560;29;20431;-74
2022/03/02 09:12:41;;;;;;;1793.03;337.70;;;5.20;99.90;;;;;;4955452;29;20529;-74
2022/03/02 09:15:11;;;;;;;1787.60;380.10;;;5.20;99.90;;;;;;4954283;29;20443;-74
2022/03/02 09:17:39;;;;;;;1940.83;292.23;;;5.20;99.90;;;;;;4955741;28;20442;-74
2022/03/02 09:20:10;;;;;;;1848.77;372.63;;;5.20;99.90;;;;;;4955343;29;20948;-74
2022/03/02 09:22:41;;;;;;;1999.90;354.97;;;5.20;99.90;;;;;;4954123;28;20511;-74
2022/03/02 09:25:10;;;;;;;1999.90;527.10;;;5.20;99.90;;;;;;4955680;28;20423;-74
2022/03/02 09:27:39;;;;;;;1999.90;490.67;;;5.20;99.90;;;;;;4955558;28;20449;-75
2022/03/02 09:30:09;;;;;;;1999.90;556.43;;;5.20;99.90;;;;;;4954009;28;20457;-74
2022/03/02 09:32:42;;;;;;;1999.90;556.70;;;5.30;99.90;;;;;;4955343;29;20450;-74
2022/03/02 09:35:13;;;;;;;1999.90;561.30;;;5.30;99.90;;;;;;4954053;29;20478;-74
2022/03/02 09:37:44;;;;;;;1994.37;530.77;;;5.30;99.90;;;;;;4955307;28;20427;-74
2022/03/02 09:40:22;;;;;;;1999.90;619.90;;;5.40;99.90;;;;;;4955274;29;20454;-74
2022/03/02 09:42:56;;;;;;;1999.90;662.07;;;5.40;99.90;;;;;;4953828;28;20490;-74
2022/03/02 09:45:26;;;;;;;1999.90;706.53;;;5.40;99.90;;;;;;4955524;29;20423;-75
2022/03/02 09:47:59;;;;;;;1999.90;747.23;;;5.40;99.90;;;;;;4953962;28;20451;-74
2022/03/02 09:50:31;;;;;;;1999.90;681.47;;;5.40;99.90;;;;;;4953904;28;20824;-75
2022/03/02 09:53:02;;;;;;;1999.90;648.83;;;5.50;99.90;;;;;;4955293;29;20464;-74
2022/03/02 09:55:30;;;;;;;1999.90;848.37;;;5.50;99.90;;;;;;4953675;29;20544;-74
2022/03/02 09:58:00;;;;;;;1999.90;759.57;;;5.50;99.90;;;;;;4955094;28;20449;-74
2022/03/02 10:00:29;;;;;;;1999.90;706.10;;;5.60;99.90;;;;;;4955562;28;20505;-74
2022/03/02 10:03:01;;;;;;;1999.90;831.63;;;5.60;99.90;;;;;;4953584;28;21062;-74
2022/03/02 10:05:33;;;;;;;1999.90;999.90;;;5.60;99.90;;;;;;4953913;29;20438;-74
2022/03/02 10:08:03;;;;;;;1999.90;659.27;;;5.70;99.90;;;;;;4955277;29;20521;-74
2022/03/02 10:10:36;;;;;;;1999.90;996.90;;;5.70;99.90;;;;;;4953848;28;20546;-74
2022/03/02 10:13:08;;;;;;;1999.90;687.73;;;5.80;99.90;;;;;;4958649;29;20583;-74
2022/03/02 10:15:37;;;;;;;1999.90;999.90;;;5.80;99.90;;;;;;4959065;28;20422;-74
2022/03/02 10:18:10;;;;;;;1999.90;999.90;;;5.90;99.90;;;;;;4958661;28;20453;-74
2022/03/02 10:20:41;;;;;;;1999.90;999.90;;;5.90;99.90;;;;;;4959001;28;20437;-74
2022/03/02 10:23:33;;;;;;;1999.90;999.90;;;5.90;99.90;;;;;;4957263;29;20497;-74
2022/03/02 10:26:05;;;;;;;1999.90;993.10;;;6.00;99.90;;;;;;4958878;28;20451;-74
2022/03/02 10:28:45;;;;;;;1999.90;999.90;;;6.00;99.90;;;;;;4959086;29;20426;-74
2022/03/02 10:31:45;;;;;;;1999.90;966.77;;;6.10;99.90;;;;;;4958802;28;20422;-74
2022/03/02 10:34:29;;;;;;;1999.90;999.90;;;6.10;99.90;;;;;;4958720;29;20477;-75
2022/03/02 10:37:24;;;;;;;1999.90;965.43;;;6.20;99.90;;;;;;4958438;29;20418;-74
2022/03/02 10:40:05;;;;;;;1999.90;844.33;;;6.20;99.90;;;;;;4957076;28;20506;-75
2022/03/02 10:42:36;;;;;;;1999.90;310.03;;;6.30;99.90;;;;;;4957140;29;21042;-74
2022/03/02 10:45:16;;;;;;;1999.90;948.00;;;6.30;99.90;;;;;;4957277;29;20451;-74
2022/03/02 10:47:56;;;;;;;1999.90;999.90;;;6.40;99.90;;;;;;4958602;29;20951;-75
2022/03/02 10:50:29;;;;;;;1999.90;515.23;;;6.40;99.90;;;;;;4956971;29;20534;-75
2022/03/02 10:52:59;;;;;;;1999.90;999.90;;;6.50;99.90;;;;;;4956800;29;20578;-75
2022/03/02 10:55:27;;;;;;;1999.90;999.90;;;6.50;99.90;;;;;;4957250;29;20466;-74
2022/03/02 10:57:56;;;;;;;1999.90;227.80;;;6.60;99.90;;;;;;4956737;28;20477;-75
2022/03/02 11:00:26;;;;;;;1999.90;551.80;;;6.60;99.90;;;;;;4958257;28;20454;-74
2022/03/02 11:02:58;;;;;;;1999.90;737.37;;;6.60;99.90;;;;;;4956780;29;20850;-74
2022/03/02 11:05:30;;;;;;;1999.90;999.90;;;6.70;99.90;;;;;;4957902;29;20511;-74
2022/03/02 11:07:59;;;;;;;1999.90;999.90;;;6.70;99.90;;;;;;4956810;29;20447;-75
2022/03/02 11:10:33;;;;;;;1999.90;999.90;;;6.70;99.90;;;;;;4957787;28;20475;-75
2022/03/02 11:13:05;;;;;;;1999.90;999.90;;;6.80;99.90;;;;;;4956427;29;20478;-75
2022/03/02 11:15:46;;;;;;;1999.90;999.90;;;6.90;99.90;;;;;;4958019;28;20516;-74
2022/03/02 11:18:16;;;;;;;1999.90;880.50;;;6.90;99.90;;;;;;4957949;28;20434;-74
2022/03/02 11:21:02;;;;;;;1999.90;757.20;;;7.00;99.90;;;;;;4957639;29;20439;-74
2022/03/02 11:23:34;;;;;;;1999.90;788.73;;;7.10;99.90;;;;;;4956051;28;20489;-74
2022/03/02 11:26:08;;;;;;;1999.90;721.13;;;7.10;99.90;;;;;;4957523;29;20947;-74
2022/03/02 11:28:37;;;;;;;1999.90;787.10;;;7.20;99.90;;;;;;4956252;29;20879;-75
2022/03/02 11:31:07;;;;;;;1999.90;611.53;;;7.20;99.90;;;;;;4957453;28;20534;-74
2022/03/02 11:33:36;;;;;;;1999.90;737.70;;;7.20;99.90;;;;;;4957661;29;20467;-74
2022/03/02 11:36:12;;;;;;;763.37;216.73;;;7.30;99.90;;;;;;4956081;29;20862;-74
2022/03/02 11:38:42;;;;;;;510.13;187.97;;;7.30;99.90;;;;;;4956077;29;20459;-74
2022/03/02 11:41:12;;;;;;;34.03;30.37;;;7.40;99.90;;;;;;4957219;29;20451;-74
2022/03/02 11:43:41;;;;;;;195.70;117.47;;;7.40;99.90;;;;;;4955780;28;20475;-75
2022/03/02 11:46:11;;;;;;;1161.27;307.60;;;7.50;99.90;;;;;;4955832;28;20453;-74
2022/03/02 11:48:41;;;;;;;88.83;58.63;;;7.50;99.90;;;;;;4957627;28;20809;-75
2022/03/02 11:51:16;;;;;;;80.60;56.43;;;7.60;99.90;;;;;;4957136;29;20473;-75
2022/03/02 11:53:45;;;;;;;24.13;21.93;;;7.60;99.90;;;;;;4955882;28;20480;-75
2022/03/02 11:56:16;;;;;;;22.13;19.93;;;7.70;99.90;;;;;;4956982;28;20458;-75
2022/03/02 11:59:02;;;;;;;23.17;20.77;;;7.70;99.90;;;;;;4957273;29;20510;-75
2022/03/02 12:01:53;;;;;;;22.23;20.03;;;7.80;99.90;;;;;;4957036;28;20471;-75
2022/03/02 12:04:32;;;;;;;21.90;19.80;;;7.90;99.90;;;;;;4955561;29;20516;-75
2022/03/02 12:07:05;;;;;;;21.80;19.60;;;7.90;99.90;;;;;;4957061;29;20440;-75
2022/03/02 12:09:35;;;;;;;20.70;18.70;;;7.90;99.90;;;;;;4955544;29;20448;-75
2022/03/02 12:12:09;;;;;;;21.50;19.20;;;8.00;99.90;;;;;;4955532;28;20458;-75
2022/03/02 12:14:46;;;;;;;23.03;20.73;;;8.00;99.90;;;;;;4956922;29;20424;-75
2022/03/02 12:17:16;;;;;;;21.13;19.13;;;8.10;99.90;;;;;;4957298;29;20514;-75
2022/03/02 12:19:48;;;;;;;22.07;19.77;;;8.10;99.90;;;;;;4956552;29;20808;-75
2022/03/02 12:22:18;;;;;;;22.37;20.13;;;8.20;99.90;;;;;;4955181;29;20477;-75
2022/03/02 12:24:48;;;;;;;21.67;19.03;;;8.20;99.90;;;;;;4956913;28;20482;-75
2022/03/02 12:27:17;;;;;;;24.40;21.50;;;8.30;99.90;;;;;;4955156;28;20547;-75
2022/03/02 12:29:52;;;;;;;21.33;19.03;;;8.40;99.90;;;;;;4955124;28;20460;-75